Time;durP1;ratioP1;P1;durP2;ratioP2;P2;SDS_P1;SDS_P2;PMS_P1;PMS_P2;Temp;Humidity;BMP_temperature;BMP_pressure;BME280_temperature;BME280_humidity;BME280_pressure;Samples;Min_cycle;Max_cycle;Signal;HPM_P1;HPM_P2
2022/04/30 00:01:19;;;;;;;23.92;10.15;;;5.00;99.90;;;;;;5050162;28;20048;-75
2022/04/30 00:03:45;;;;;;;22.80;9.40;;;5.00;99.90;;;;;;5048121;28;20036;-75
2022/04/30 00:06:10;;;;;;;31.58;10.45;;;5.10;99.90;;;;;;5026109;28;20570;-76
2022/04/30 00:08:36;;;;;;;20.05;8.45;;;5.10;99.90;;;;;;5048879;28;20033;-75
2022/04/30 00:11:01;;;;;;;20.75;9.45;;;5.10;99.90;;;;;;5050445;28;20040;-76
2022/04/30 00:13:27;;;;;;;22.35;8.80;;;5.10;99.90;;;;;;5049258;28;20037;-76
2022/04/30 00:15:52;;;;;;;24.67;9.32;;;5.10;99.90;;;;;;5033393;28;20049;-76
2022/04/30 00:18:18;;;;;;;24.17;9.50;;;5.10;99.90;;;;;;5045460;28;20443;-76
2022/04/30 00:20:47;;;;;;;26.75;9.95;;;5.00;99.90;;;;;;5044950;28;20076;-75
2022/04/30 00:23:19;;;;;;;25.23;9.55;;;5.00;99.90;;;;;;5049061;28;20090;-75
2022/04/30 00:25:48;;;;;;;25.17;10.27;;;5.00;99.90;;;;;;5035166;28;20163;-74
2022/04/30 00:28:14;;;;;;;24.90;10.15;;;4.90;99.90;;;;;;5050222;28;20045;-75
2022/04/30 00:30:41;;;;;;;25.23;10.52;;;4.90;99.90;;;;;;5031395;28;20091;-76
2022/04/30 00:33:09;;;;;;;24.30;9.52;;;4.90;99.90;;;;;;5032737;28;20045;-76
2022/04/30 00:35:39;;;;;;;29.45;11.13;;;4.90;99.90;;;;;;5051031;28;20044;-75
2022/04/30 00:38:05;;;;;;;29.25;10.82;;;4.80;99.90;;;;;;5043875;28;20044;-75
2022/04/30 00:40:31;;;;;;;26.17;10.73;;;4.80;99.90;;;;;;5046117;28;20077;-75
2022/04/30 00:42:56;;;;;;;25.38;10.35;;;4.80;99.90;;;;;;5046650;28;20578;-74
2022/04/30 00:45:22;;;;;;;27.88;11.30;;;4.80;99.90;;;;;;5048715;28;20048;-75
2022/04/30 00:47:48;;;;;;;25.67;10.98;;;4.70;99.90;;;;;;5046498;28;20282;-75
2022/04/30 00:50:16;;;;;;;27.33;11.32;;;4.70;99.90;;;;;;5032574;28;20045;-75
2022/04/30 00:52:43;;;;;;;26.30;10.85;;;4.60;99.90;;;;;;5045720;28;20168;-75
2022/04/30 00:55:11;;;;;;;27.05;11.52;;;4.60;99.90;;;;;;5045499;28;20041;-75
2022/04/30 00:57:40;;;;;;;32.45;11.85;;;4.60;99.90;;;;;;5059379;28;20059;-75
2022/04/30 01:00:06;;;;;;;30.38;10.68;;;4.60;99.90;;;;;;5046366;28;20053;-75
2022/04/30 01:02:33;;;;;;;31.33;12.10;;;4.50;99.90;;;;;;5029492;28;20398;-75
2022/04/30 01:05:00;;;;;;;26.85;11.68;;;4.60;99.90;;;;;;5029532;28;20041;-75
2022/04/30 01:07:28;;;;;;;22.45;10.63;;;4.50;99.90;;;;;;5047227;28;20403;-75
2022/04/30 01:09:54;;;;;;;30.73;11.93;;;4.40;99.90;;;;;;5043754;28;20086;-75
2022/04/30 01:12:22;;;;;;;31.52;12.35;;;4.40;99.90;;;;;;5072494;28;20041;-75
2022/04/30 01:14:48;;;;;;;26.63;12.05;;;4.30;99.90;;;;;;5045641;28;20040;-75
2022/04/30 01:17:14;;;;;;;29.58;11.52;;;4.30;99.90;;;;;;5029374;28;20148;-75
2022/04/30 01:19:42;;;;;;;33.10;12.63;;;4.20;99.90;;;;;;5032644;28;20551;-75
2022/04/30 01:22:12;;;;;;;29.10;11.50;;;4.20;99.90;;;;;;5059445;28;20048;-75
2022/04/30 01:24:38;;;;;;;30.70;12.15;;;4.10;99.90;;;;;;5044964;28;20060;-75
2022/04/30 01:27:07;;;;;;;32.00;11.60;;;4.10;99.90;;;;;;5045949;28;20060;-74
2022/04/30 01:29:33;;;;;;;32.45;12.73;;;4.20;99.90;;;;;;5045633;28;20573;-75
2022/04/30 01:37:29;;;;;;;35.60;12.75;;;4.00;99.90;;;;;;5046291;28;20123;-75
2022/04/30 01:40:00;;;;;;;30.35;12.55;;;3.90;99.90;;;;;;5046055;28;20037;-75
2022/04/30 01:42:29;;;;;;;30.67;13.50;;;3.90;99.90;;;;;;5042291;28;20072;-75
2022/04/30 01:44:57;;;;;;;36.63;13.82;;;3.80;99.90;;;;;;5042123;28;20521;-75
2022/04/30 01:47:23;;;;;;;29.90;12.20;;;3.90;99.90;;;;;;5048632;28;20538;-76
2022/04/30 01:49:50;;;;;;;27.90;12.13;;;3.90;99.90;;;;;;5055667;28;20095;-76
2022/04/30 01:52:16;;;;;;;21.48;10.88;;;3.80;99.90;;;;;;5054195;28;20522;-76
2022/04/30 01:54:43;;;;;;;23.75;10.98;;;3.60;99.90;;;;;;5045835;28;20063;-76
2022/04/30 01:57:08;;;;;;;16.85;9.13;;;3.50;99.90;;;;;;5046540;28;20063;-76
2022/04/30 01:59:34;;;;;;;22.40;9.75;;;3.50;99.90;;;;;;5076396;28;20492;-76
2022/04/30 02:02:02;;;;;;;27.83;11.15;;;3.40;99.90;;;;;;5052988;28;20136;-76
2022/04/30 02:04:30;;;;;;;26.83;11.93;;;3.30;99.90;;;;;;5047047;28;20041;-76
2022/04/30 02:06:59;;;;;;;27.45;12.32;;;3.30;99.90;;;;;;5048024;28;20040;-76
2022/04/30 02:09:27;;;;;;;23.23;10.73;;;3.30;99.90;;;;;;5053281;28;20041;-76
2022/04/30 02:11:57;;;;;;;26.40;11.18;;;3.20;99.90;;;;;;5047411;28;20059;-76
2022/04/30 02:14:30;;;;;;;26.67;10.65;;;3.30;99.90;;;;;;5032409;28;20032;-76
2022/04/30 02:16:57;;;;;;;28.45;11.80;;;3.30;99.90;;;;;;5052582;28;20123;-76
2022/04/30 02:19:27;;;;;;;30.30;12.48;;;3.30;99.90;;;;;;5051022;28;20037;-76
2022/04/30 02:21:57;;;;;;;32.90;12.52;;;3.30;99.90;;;;;;5033061;28;20120;-76
2022/04/30 02:24:27;;;;;;;33.30;14.18;;;3.30;99.90;;;;;;5057130;28;20043;-76
2022/04/30 02:26:54;;;;;;;27.80;12.75;;;3.30;99.90;;;;;;5054188;28;20503;-75
2022/04/30 02:29:19;;;;;;;31.48;10.80;;;3.30;99.90;;;;;;5033957;28;20072;-76
2022/04/30 02:31:45;;;;;;;28.88;12.27;;;3.30;99.90;;;;;;5040235;28;20072;-75
2022/04/30 02:34:11;;;;;;;26.20;11.88;;;3.30;99.90;;;;;;5080581;28;20044;-75
2022/04/30 02:36:36;;;;;;;32.53;11.95;;;3.40;99.90;;;;;;5056513;28;20091;-75
2022/04/30 02:39:02;;;;;;;28.30;12.35;;;3.40;99.90;;;;;;5053013;28;20040;-75
2022/04/30 02:41:29;;;;;;;35.03;12.98;;;3.40;99.90;;;;;;5057192;28;20075;-75
2022/04/30 02:43:55;;;;;;;34.67;12.75;;;3.50;99.90;;;;;;5054268;28;20056;-75
2022/04/30 02:46:21;;;;;;;37.72;13.98;;;3.50;99.90;;;;;;5035436;28;20400;-76
2022/04/30 02:48:48;;;;;;;30.50;13.02;;;3.60;99.90;;;;;;5054078;28;20040;-76
2022/04/30 02:51:15;;;;;;;31.52;12.95;;;3.60;99.90;;;;;;5055501;28;20033;-76
2022/04/30 02:53:42;;;;;;;31.50;13.88;;;3.60;99.90;;;;;;5057871;28;20044;-75
2022/04/30 02:56:10;;;;;;;37.28;14.02;;;3.60;99.90;;;;;;5055025;28;20029;-76
2022/04/30 03:01:20;;;;;;;19.10;9.70;;;3.70;99.90;;;;;;5054008;28;20106;-76
2022/04/30 03:03:49;;;;;;;20.35;10.07;;;3.70;99.90;;;;;;5050744;28;20159;-76
2022/04/30 03:06:17;;;;;;;21.30;10.32;;;3.60;99.90;;;;;;5056089;28;20045;-76
2022/04/30 03:08:48;;;;;;;21.27;9.48;;;3.60;99.90;;;;;;5044260;28;20068;-76
2022/04/30 03:11:14;;;;;;;16.85;8.93;;;3.50;99.90;;;;;;5054812;28;20040;-76
2022/04/30 03:13:40;;;;;;;18.20;9.05;;;3.40;99.90;;;;;;5065330;28;20043;-76
2022/04/30 03:21:44;;;;;;;28.65;12.55;;;3.40;99.90;;;;;;5050961;28;20059;-76
2022/04/30 03:24:21;;;;;;;27.92;11.85;;;3.40;99.90;;;;;;5041494;28;20574;-76
2022/04/30 03:26:48;;;;;;;29.25;11.75;;;3.40;99.90;;;;;;5057704;28;20067;-76
2022/04/30 03:29:18;;;;;;;27.95;11.63;;;3.40;99.90;;;;;;5060223;28;20064;-76
2022/04/30 03:31:44;;;;;;;27.05;10.75;;;3.40;99.90;;;;;;5040131;28;20390;-75
2022/04/30 03:34:11;;;;;;;45.67;10.32;;;3.50;99.90;;;;;;5055932;28;20035;-75
2022/04/30 03:36:37;;;;;;;50.92;11.20;;;3.50;99.90;;;;;;5059065;28;20064;-76
2022/04/30 03:39:03;;;;;;;22.45;9.50;;;3.50;99.90;;;;;;5058202;28;20111;-76
2022/04/30 03:41:29;;;;;;;25.65;10.38;;;3.40;99.90;;;;;;5044848;28;20051;-76
2022/04/30 03:43:55;;;;;;;27.80;10.95;;;3.40;99.90;;;;;;5066823;28;20045;-76
2022/04/30 03:46:20;;;;;;;24.40;11.00;;;3.40;99.90;;;;;;5057030;28;20041;-76
2022/04/30 03:48:51;;;;;;;35.60;13.50;;;3.40;99.90;;;;;;5054719;28;20367;-76
2022/04/30 03:51:17;;;;;;;32.15;12.82;;;3.40;99.90;;;;;;5048887;28;20033;-75
2022/04/30 03:53:43;;;;;;;34.75;14.05;;;3.40;99.90;;;;;;5031423;28;20106;-75
2022/04/30 03:56:08;;;;;;;38.13;14.48;;;3.40;99.90;;;;;;5066703;28;20029;-74
2022/04/30 03:58:34;;;;;;;39.38;14.18;;;3.50;99.90;;;;;;5049202;28;20045;-75
2022/04/30 04:01:00;;;;;;;39.72;14.48;;;3.60;99.90;;;;;;5047757;28;20050;-76
2022/04/30 04:03:26;;;;;;;41.75;15.27;;;3.60;99.90;;;;;;5046584;28;20338;-76
2022/04/30 04:05:52;;;;;;;41.58;14.93;;;3.70;99.90;;;;;;5035937;28;20602;-76
2022/04/30 04:08:20;;;;;;;27.75;12.50;;;3.70;99.90;;;;;;5056412;28;20037;-76
2022/04/30 04:10:46;;;;;;;25.60;10.93;;;3.80;99.90;;;;;;5038312;28;20738;-76
2022/04/30 04:18:41;;;;;;;22.23;10.73;;;3.70;99.90;;;;;;5058768;28;20055;-75
2022/04/30 04:21:08;;;;;;;24.50;10.43;;;3.60;99.90;;;;;;5056284;28;20033;-76
2022/04/30 04:25:59;;;;;;;25.13;10.55;;;3.50;99.90;;;;;;5051403;28;20063;-76
2022/04/30 04:26:20;;;;;;;23.35;10.95;;;3.60;99.90;;;;;;5048187;28;20250;-76
2022/04/30 04:28:46;;;;;;;24.83;10.40;;;3.50;99.90;;;;;;5048221;28;20390;-76
2022/04/30 04:31:11;;;;;;;21.58;9.70;;;3.60;99.90;;;;;;5053021;28;20494;-76
2022/04/30 04:33:37;;;;;;;26.42;10.98;;;3.60;99.90;;;;;;5065221;28;20037;-76
2022/04/30 04:36:03;;;;;;;32.00;10.32;;;3.50;99.90;;;;;;5050917;28;20123;-75
2022/04/30 04:38:31;;;;;;;30.63;12.45;;;3.60;99.90;;;;;;5047746;28;20377;-76
2022/04/30 04:40:56;;;;;;;28.42;12.38;;;3.60;99.90;;;;;;5053872;28;20047;-76
2022/04/30 04:43:22;;;;;;;37.15;14.15;;;3.50;99.90;;;;;;5057037;28;20695;-76
2022/04/30 04:45:47;;;;;;;40.88;14.55;;;3.50;99.90;;;;;;5056343;28;20045;-76
2022/04/30 04:48:14;;;;;;;37.38;13.60;;;3.70;99.90;;;;;;5057684;28;20032;-76
2022/04/30 04:50:40;;;;;;;34.13;13.57;;;3.70;99.90;;;;;;5056833;28;20124;-76
2022/04/30 04:53:05;;;;;;;37.28;14.90;;;3.80;99.90;;;;;;5057303;28;20116;-76
2022/04/30 04:55:31;;;;;;;42.33;13.77;;;3.80;99.90;;;;;;5037921;28;20063;-76
2022/04/30 04:57:56;;;;;;;38.05;13.93;;;3.90;99.90;;;;;;5057907;28;20045;-76
2022/04/30 05:00:22;;;;;;;38.42;14.43;;;4.00;99.90;;;;;;5056657;28;20741;-76
2022/04/30 05:02:48;;;;;;;38.08;14.35;;;4.00;99.90;;;;;;5055092;28;20059;-76
2022/04/30 05:05:14;;;;;;;45.60;14.70;;;4.10;99.90;;;;;;5052403;28;20029;-76
2022/04/30 05:07:39;;;;;;;47.10;15.07;;;4.20;99.90;;;;;;5059349;28;20056;-76
2022/04/30 05:10:05;;;;;;;38.05;15.60;;;4.40;99.90;;;;;;5046112;28;20052;-75
2022/04/30 05:12:31;;;;;;;40.83;14.90;;;4.50;99.90;;;;;;5037627;28;20424;-76
2022/04/30 05:14:56;;;;;;;38.40;14.57;;;4.60;99.90;;;;;;5036038;28;20069;-76
2022/04/30 05:17:22;;;;;;;38.15;15.38;;;4.70;99.90;;;;;;5037172;28;20049;-75
2022/04/30 05:19:47;;;;;;;38.70;15.27;;;4.90;99.90;;;;;;5035218;28;20036;-76
2022/04/30 05:22:14;;;;;;;39.90;14.93;;;5.00;99.90;;;;;;5018486;28;20045;-76
2022/04/30 05:24:39;;;;;;;35.50;15.30;;;5.20;99.90;;;;;;5035238;28;20435;-75
2022/04/30 05:27:08;;;;;;;38.08;15.85;;;5.20;99.90;;;;;;5043057;28;20029;-76
2022/04/30 05:29:34;;;;;;;35.70;14.75;;;5.30;99.90;;;;;;5054515;28;20440;-75
2022/04/30 05:31:59;;;;;;;37.90;15.32;;;5.40;99.90;;;;;;5040824;28;20060;-76
2022/04/30 05:34:25;;;;;;;40.63;15.52;;;5.50;99.90;;;;;;5039207;28;20455;-76
2022/04/30 05:36:50;;;;;;;36.50;14.77;;;5.50;99.90;;;;;;5050504;28;20044;-76
2022/04/30 05:39:16;;;;;;;38.72;14.95;;;5.60;99.90;;;;;;5069217;28;20047;-76
2022/04/30 05:41:42;;;;;;;32.45;14.63;;;5.70;99.90;;;;;;5052714;28;20032;-76
2022/04/30 05:44:07;;;;;;;40.13;14.25;;;5.80;99.90;;;;;;5059850;28;20087;-76
2022/04/30 05:46:33;;;;;;;39.67;15.27;;;5.90;99.90;;;;;;5059179;28;20044;-76
2022/04/30 05:48:58;;;;;;;34.30;14.93;;;6.00;99.90;;;;;;5056659;28;20124;-76
2022/04/30 05:51:24;;;;;;;34.30;15.43;;;6.20;99.90;;;;;;5038552;28;20530;-77
2022/04/30 05:53:49;;;;;;;38.50;15.13;;;6.30;99.90;;;;;;5056697;28;20037;-77
2022/04/30 05:56:15;;;;;;;31.77;14.35;;;6.40;99.90;;;;;;5048812;28;20120;-76
2022/04/30 05:58:40;;;;;;;39.90;15.50;;;6.50;99.90;;;;;;5036150;28;20049;-76
2022/04/30 06:01:06;;;;;;;33.35;15.13;;;6.60;99.90;;;;;;5036155;28;20124;-77
2022/04/30 06:03:33;;;;;;;27.95;13.90;;;6.80;99.90;;;;;;5047083;28;20437;-77
2022/04/30 06:05:59;;;;;;;32.25;14.43;;;6.90;99.90;;;;;;5048354;28;20045;-76
2022/04/30 06:08:24;;;;;;;34.72;15.38;;;7.00;99.90;;;;;;5055401;28;20036;-76
2022/04/30 06:10:50;;;;;;;36.28;14.73;;;7.00;99.90;;;;;;5079188;28;20035;-76
2022/04/30 06:13:15;;;;;;;37.30;15.50;;;7.10;99.90;;;;;;5054478;28;20039;-76
2022/04/30 06:15:41;;;;;;;33.30;15.48;;;7.20;99.90;;;;;;5047690;28;20041;-76
2022/04/30 06:18:08;;;;;;;31.58;14.57;;;7.20;99.90;;;;;;5047255;28;20036;-76
2022/04/30 06:20:34;;;;;;;31.27;14.82;;;7.30;99.90;;;;;;5051617;28;20436;-76
2022/04/30 06:23:00;;;;;;;28.98;13.98;;;7.40;99.90;;;;;;5071852;28;20032;-78
2022/04/30 06:25:26;;;;;;;29.33;13.70;;;7.50;99.90;;;;;;5057501;28;20067;-77
2022/04/30 06:27:52;;;;;;;34.08;14.85;;;7.60;99.90;;;;;;5052612;28;20523;-77
2022/04/30 06:30:18;;;;;;;32.22;14.43;;;7.70;99.90;;;;;;5036498;28;20036;-76
2022/04/30 06:32:43;;;;;;;33.45;14.13;;;7.70;99.90;;;;;;5054018;28;20474;-76
2022/04/30 06:35:09;;;;;;;33.50;14.70;;;7.80;99.90;;;;;;5060033;28;20515;-77
2022/04/30 06:37:34;;;;;;;31.30;13.68;;;7.80;99.90;;;;;;5059046;28;20041;-77
2022/04/30 06:40:00;;;;;;;27.23;13.10;;;7.90;99.90;;;;;;5057431;28;20045;-76
2022/04/30 06:42:25;;;;;;;31.80;13.75;;;8.00;99.90;;;;;;5059565;28;20526;-77
2022/04/30 06:44:51;;;;;;;30.20;13.85;;;8.00;99.90;;;;;;5052436;28;20056;-76
2022/04/30 06:47:18;;;;;;;29.50;14.35;;;8.00;99.90;;;;;;5058182;28;20380;-77
2022/04/30 06:49:44;;;;;;;25.48;13.45;;;8.10;99.90;;;;;;5043131;28;20064;-76
2022/04/30 06:52:09;;;;;;;29.15;12.95;;;8.20;99.90;;;;;;5063325;28;20346;-76
2022/04/30 06:57:21;;;;;;;25.08;13.23;;;8.30;99.90;;;;;;5051986;28;20090;-76
2022/04/30 06:59:51;;;;;;;30.05;13.77;;;8.40;99.90;;;;;;5046596;28;20044;-76
2022/04/30 07:02:22;;;;;;;32.80;14.13;;;8.50;99.90;;;;;;5049443;28;20037;-77
2022/04/30 07:04:50;;;;;;;28.05;13.35;;;8.60;99.90;;;;;;5050484;28;20071;-77
2022/04/30 07:07:17;;;;;;;29.60;13.25;;;8.70;99.90;;;;;;5047305;28;20577;-76
2022/04/30 07:09:43;;;;;;;29.25;13.55;;;8.70;99.90;;;;;;5033476;28;20061;-76
2022/04/30 07:12:11;;;;;;;33.92;14.57;;;8.80;99.90;;;;;;5050097;28;20064;-77
2022/04/30 07:14:40;;;;;;;30.88;14.27;;;8.80;99.90;;;;;;5051846;28;21459;-76
2022/04/30 07:17:07;;;;;;;29.90;14.20;;;8.90;99.90;;;;;;5076825;28;20048;-76
2022/04/30 07:19:34;;;;;;;26.63;13.07;;;9.00;99.90;;;;;;5044064;28;20471;-77
2022/04/30 07:22:00;;;;;;;25.25;13.52;;;9.10;99.90;;;;;;5047373;28;20032;-76
2022/04/30 07:24:27;;;;;;;26.02;13.30;;;9.10;99.90;;;;;;5048008;28;20123;-76
2022/04/30 07:26:52;;;;;;;29.85;13.75;;;9.10;99.90;;;;;;5040345;28;20047;-76
2022/04/30 07:29:18;;;;;;;24.75;13.25;;;9.20;99.90;;;;;;5051508;28;20033;-76
2022/04/30 07:31:44;;;;;;;30.08;13.63;;;9.20;99.90;;;;;;5034366;28;20237;-76
2022/04/30 07:34:09;;;;;;;27.08;13.00;;;9.20;99.90;;;;;;5049438;28;20148;-77
2022/04/30 07:36:36;;;;;;;24.05;12.57;;;9.20;99.90;;;;;;5065079;28;20037;-76
2022/04/30 07:39:02;;;;;;;24.75;12.32;;;9.20;99.90;;;;;;5033545;28;20825;-76
2022/04/30 07:41:27;;;;;;;23.33;12.75;;;9.20;99.90;;;;;;5049178;28;20558;-76
2022/04/30 07:43:53;;;;;;;26.73;13.00;;;9.20;99.90;;;;;;5048412;28;20044;-75
2022/04/30 07:46:18;;;;;;;27.55;13.80;;;9.10;99.90;;;;;;5052286;28;20442;-75
2022/04/30 07:48:44;;;;;;;27.77;13.63;;;9.10;99.90;;;;;;5039627;28;20454;-75
2022/04/30 07:51:18;;;;;;;26.23;14.00;;;9.10;99.90;;;;;;5043649;28;20033;-75
2022/04/30 07:53:45;;;;;;;29.15;14.77;;;9.10;99.90;;;;;;5027407;28;20047;-75
2022/04/30 07:56:11;;;;;;;27.23;13.15;;;9.10;99.90;;;;;;5045330;28;20033;-75
2022/04/30 07:58:37;;;;;;;24.08;12.63;;;9.20;99.90;;;;;;5046897;28;20033;-75
2022/04/30 08:01:03;;;;;;;24.23;12.32;;;9.40;99.90;;;;;;5046437;28;20037;-76
2022/04/30 08:03:28;;;;;;;30.25;12.88;;;9.40;99.90;;;;;;5048775;28;20037;-75
2022/04/30 08:05:54;;;;;;;27.80;12.68;;;9.60;99.90;;;;;;5032656;28;20455;-75
2022/04/30 08:08:19;;;;;;;26.73;12.77;;;9.60;99.90;;;;;;5050660;28;20434;-75
2022/04/30 08:10:45;;;;;;;27.63;11.30;;;9.70;99.90;;;;;;5050278;28;20041;-77
2022/04/30 08:13:11;;;;;;;23.70;11.57;;;9.90;99.90;;;;;;5062622;28;20402;-75
2022/04/30 08:15:43;;;;;;;21.70;10.35;;;10.10;99.90;;;;;;5050070;28;20037;-72
2022/04/30 08:18:09;;;;;;;24.13;10.48;;;10.20;99.90;;;;;;5050207;28;20128;-72
2022/04/30 08:20:34;;;;;;;22.92;10.73;;;10.40;99.90;;;;;;5048090;28;20072;-72
2022/04/30 08:23:02;;;;;;;24.23;11.13;;;10.50;99.90;;;;;;5039503;28;20045;-72
2022/04/30 08:25:28;;;;;;;25.33;11.93;;;10.80;99.90;;;;;;5047394;28;20517;-72
2022/04/30 08:27:53;;;;;;;29.55;12.60;;;11.10;99.90;;;;;;5046359;28;20125;-73
2022/04/30 08:30:19;;;;;;;29.35;12.00;;;11.30;99.90;;;;;;5054490;28;20043;-73
2022/04/30 08:32:47;;;;;;;22.42;10.68;;;11.50;99.90;;;;;;5062204;28;20510;-72
2022/04/30 08:35:12;;;;;;;23.50;11.00;;;11.60;99.90;;;;;;5049487;28;20048;-72
2022/04/30 08:37:38;;;;;;;21.98;11.07;;;11.70;99.90;;;;;;5049855;28;20033;-72
2022/04/30 08:40:04;;;;;;;25.33;10.27;;;11.70;99.90;;;;;;5032821;28;20052;-71
2022/04/30 08:42:30;;;;;;;26.70;12.00;;;11.70;99.90;;;;;;5049425;28;20403;-72
2022/04/30 08:44:56;;;;;;;21.02;11.38;;;11.60;99.90;;;;;;5048079;28;20090;-72
2022/04/30 08:47:21;;;;;;;21.23;12.23;;;11.60;99.90;;;;;;5050051;28;20483;-73
2022/04/30 08:49:48;;;;;;;20.98;11.20;;;11.50;99.90;;;;;;5048185;28;20040;-73
2022/04/30 08:52:15;;;;;;;20.02;11.13;;;11.60;99.90;;;;;;5048624;28;20094;-72
2022/04/30 08:54:41;;;;;;;22.13;11.57;;;11.60;99.90;;;;;;5046609;28;20041;-72
2022/04/30 08:57:06;;;;;;;18.80;11.50;;;11.70;99.90;;;;;;5048899;28;20056;-72
2022/04/30 08:59:32;;;;;;;23.83;12.13;;;11.80;99.90;;;;;;5048389;28;20140;-73
2022/04/30 09:02:02;;;;;;;23.20;11.90;;;12.00;99.90;;;;;;5030243;28;20072;-72
2022/04/30 09:04:41;;;;;;;26.05;12.20;;;12.10;99.90;;;;;;5029779;28;20042;-72
2022/04/30 09:07:13;;;;;;;20.00;11.35;;;12.20;99.90;;;;;;5043726;28;20045;-72
2022/04/30 09:09:39;;;;;;;20.95;11.90;;;12.20;99.90;;;;;;5046990;28;20037;-71
2022/04/30 09:12:09;;;;;;;23.83;11.55;;;12.30;99.90;;;;;;5048810;28;20488;-72
2022/04/30 09:14:38;;;;;;;20.88;10.90;;;12.30;99.90;;;;;;5048286;28;20090;-72
2022/04/30 09:17:14;;;;;;;22.23;11.10;;;12.30;99.90;;;;;;5049385;28;20037;-72
2022/04/30 09:19:55;;;;;;;21.33;11.23;;;12.40;99.90;;;;;;5048296;28;20552;-76
2022/04/30 09:22:30;;;;;;;22.90;11.45;;;12.40;99.90;;;;;;5046594;28;20039;-74
2022/04/30 09:24:57;;;;;;;21.25;11.75;;;12.40;99.90;;;;;;5048477;28;20328;-76
2022/04/30 09:27:23;;;;;;;21.45;11.23;;;12.40;99.90;;;;;;5047927;28;20407;-74
2022/04/30 09:29:49;;;;;;;20.73;11.88;;;12.40;99.90;;;;;;5048529;28;20040;-67
2022/04/30 09:32:22;;;;;;;20.42;10.65;;;12.40;99.90;;;;;;5039883;28;20037;-66
2022/04/30 09:37:42;;;;;;;17.98;9.77;;;12.50;99.90;;;;;;5047010;28;20424;-66
2022/04/30 09:40:14;;;;;;;17.98;9.38;;;12.70;99.90;;;;;;5044799;28;20072;-66
2022/04/30 09:42:46;;;;;;;16.30;9.67;;;12.80;99.90;;;;;;5028697;28;20055;-66
2022/04/30 09:45:23;;;;;;;20.70;9.25;;;12.80;99.90;;;;;;5045439;28;20493;-66
2022/04/30 09:47:49;;;;;;;19.10;10.27;;;12.80;99.90;;;;;;5043069;28;20099;-66
2022/04/30 09:55:52;;;;;;;25.13;10.00;;;13.20;99.90;;;;;;5049144;28;20055;-65
2022/04/30 09:58:23;;;;;;;15.75;9.90;;;12.90;99.90;;;;;;5043354;28;20411;-65
2022/04/30 10:00:55;;;;;;;16.60;9.32;;;12.70;99.90;;;;;;5047508;28;20375;-65
2022/04/30 10:03:31;;;;;;;19.48;10.25;;;12.30;99.90;;;;;;5065206;28;20652;-65
2022/04/30 10:06:05;;;;;;;15.35;9.48;;;12.10;99.90;;;;;;5047955;28;20037;-65
2022/04/30 10:08:37;;;;;;;18.08;10.27;;;11.90;99.90;;;;;;5045382;28;20480;-65
2022/04/30 10:11:15;;;;;;;21.40;11.18;;;11.70;99.90;;;;;;5045206;28;20041;-66
2022/04/30 10:13:58;;;;;;;21.45;10.88;;;11.50;99.90;;;;;;5047301;28;20041;-65
2022/04/30 10:16:28;;;;;;;22.25;11.32;;;11.30;99.90;;;;;;5058495;28;20045;-66
2022/04/30 10:19:15;;;;;;;23.10;10.57;;;11.20;99.90;;;;;;5064069;28;20109;-65
2022/04/30 10:21:41;;;;;;;25.02;10.75;;;11.10;99.90;;;;;;5041113;28;20045;-64
2022/04/30 10:24:12;;;;;;;23.02;12.00;;;11.00;99.90;;;;;;5044609;28;20088;-65
2022/04/30 10:26:38;;;;;;;18.08;11.00;;;10.80;99.90;;;;;;5044845;28;20041;-64
2022/04/30 10:29:11;;;;;;;20.75;11.40;;;10.70;99.90;;;;;;5043242;28;20037;-64
2022/04/30 10:31:46;;;;;;;19.23;11.27;;;10.70;99.90;;;;;;5045242;28;20086;-64
2022/04/30 10:34:12;;;;;;;20.38;10.88;;;10.60;99.90;;;;;;5060700;28;20036;-65
2022/04/30 10:36:40;;;;;;;19.35;10.82;;;10.70;99.90;;;;;;5044320;28;20384;-64
2022/04/30 10:39:09;;;;;;;18.17;10.65;;;10.70;99.90;;;;;;5045633;28;20037;-65
2022/04/30 10:41:49;;;;;;;25.40;10.13;;;10.80;99.90;;;;;;5047822;28;20047;-65
2022/04/30 10:44:14;;;;;;;17.05;9.10;;;10.90;99.90;;;;;;5045271;28;20484;-65
2022/04/30 10:46:45;;;;;;;19.90;9.40;;;11.00;99.90;;;;;;5039070;28;20041;-64
2022/04/30 10:49:11;;;;;;;18.83;9.35;;;11.10;99.90;;;;;;5041290;28;20094;-65
2022/04/30 10:51:44;;;;;;;15.32;8.23;;;11.20;99.90;;;;;;5040998;28;20049;-65
2022/04/30 10:54:13;;;;;;;18.58;9.20;;;11.30;99.90;;;;;;5041139;28;20086;-66
2022/04/30 10:56:39;;;;;;;16.85;8.75;;;11.30;99.90;;;;;;5045358;28;20116;-73
2022/04/30 10:59:06;;;;;;;18.33;7.40;;;11.40;99.90;;;;;;5044679;28;20083;-74
2022/04/30 11:01:32;;;;;;;20.60;10.15;;;11.50;99.90;;;;;;5044802;28;20071;-75
2022/04/30 11:03:58;;;;;;;17.25;10.35;;;11.60;99.90;;;;;;5025219;28;20037;-74
2022/04/30 11:06:26;;;;;;;21.27;10.00;;;11.60;99.90;;;;;;5040511;28;20045;-75
2022/04/30 11:09:05;;;;;;;21.70;10.63;;;11.50;99.90;;;;;;5041591;28;20033;-72
2022/04/30 11:11:31;;;;;;;17.15;10.35;;;11.60;99.90;;;;;;5074552;28;20127;-74
2022/04/30 11:14:11;;;;;;;18.42;9.55;;;11.60;99.90;;;;;;5029978;28;20128;-75
2022/04/30 11:16:38;;;;;;;24.45;10.27;;;11.50;99.90;;;;;;5046988;28;20036;-75
2022/04/30 11:19:13;;;;;;;16.92;8.70;;;11.50;99.90;;;;;;5061999;28;20634;-75
2022/04/30 11:21:49;;;;;;;19.80;9.68;;;11.50;99.90;;;;;;5077689;28;20414;-74
2022/04/30 11:24:24;;;;;;;16.50;9.05;;;11.50;99.90;;;;;;5045131;28;20445;-75
2022/04/30 11:26:54;;;;;;;18.40;8.80;;;11.50;99.90;;;;;;5047009;28;20990;-76
2022/04/30 11:29:20;;;;;;;16.23;8.32;;;11.50;99.90;;;;;;5045003;28;20499;-75
2022/04/30 11:31:51;;;;;;;18.08;8.75;;;11.60;99.90;;;;;;5048423;28;20500;-75
2022/04/30 11:34:17;;;;;;;18.98;9.93;;;11.60;99.90;;;;;;5047833;28;20087;-74
2022/04/30 11:36:54;;;;;;;17.30;9.07;;;11.60;99.90;;;;;;5077544;28;20040;-76
2022/04/30 11:39:21;;;;;;;18.92;9.10;;;11.80;99.90;;;;;;5062864;28;20526;-76
2022/04/30 11:41:49;;;;;;;14.80;7.93;;;11.70;99.90;;;;;;5047314;28;20056;-75
2022/04/30 11:44:17;;;;;;;17.58;8.88;;;11.70;99.90;;;;;;5050783;28;20812;-76
2022/04/30 11:46:44;;;;;;;16.77;9.05;;;11.70;99.90;;;;;;5048062;28;20040;-75
2022/04/30 11:49:11;;;;;;;17.08;7.85;;;11.60;99.90;;;;;;5044572;28;20040;-76
2022/04/30 11:51:38;;;;;;;18.83;8.35;;;11.60;99.90;;;;;;5043258;28;20045;-74
2022/04/30 11:54:08;;;;;;;16.95;8.75;;;11.50;99.90;;;;;;5044400;28;20529;-74
2022/04/30 11:56:34;;;;;;;17.23;9.55;;;11.50;99.90;;;;;;5074186;28;20564;-76
2022/04/30 11:59:00;;;;;;;16.75;9.00;;;11.50;99.90;;;;;;5059733;28;20176;-75
2022/04/30 12:01:30;;;;;;;17.33;8.52;;;11.50;99.90;;;;;;5048927;28;20122;-74
2022/04/30 12:04:03;;;;;;;15.75;8.65;;;11.50;99.90;;;;;;5077311;28;20048;-73
2022/04/30 12:06:29;;;;;;;17.05;8.35;;;11.50;99.90;;;;;;5057245;28;20052;-75
2022/04/30 12:08:55;;;;;;;15.02;7.85;;;11.50;99.90;;;;;;5042003;28;20284;-74
2022/04/30 12:11:21;;;;;;;15.02;8.15;;;11.50;99.90;;;;;;5075940;28;20068;-75
2022/04/30 12:14:01;;;;;;;15.82;8.15;;;11.50;99.90;;;;;;5047303;28;20134;-75
2022/04/30 12:16:39;;;;;;;15.93;8.63;;;11.50;99.90;;;;;;5047386;28;20049;-75
2022/04/30 12:24:43;;;;;;;15.52;8.20;;;11.60;99.90;;;;;;5046186;28;20549;-74
2022/04/30 12:27:10;;;;;;;15.23;8.35;;;11.70;99.90;;;;;;5075397;28;20033;-73
2022/04/30 12:29:37;;;;;;;14.30;8.18;;;11.70;99.90;;;;;;5074472;28;20052;-73
2022/04/30 12:32:07;;;;;;;13.48;7.75;;;11.80;99.90;;;;;;5044968;28;20460;-74
2022/04/30 12:34:38;;;;;;;16.15;8.50;;;11.90;99.90;;;;;;5076294;28;20122;-76
2022/04/30 12:37:04;;;;;;;14.35;8.55;;;11.90;99.90;;;;;;5063698;28;20044;-74
2022/04/30 12:39:29;;;;;;;16.10;8.45;;;12.00;99.90;;;;;;5042041;28;20384;-73
2022/04/30 12:41:59;;;;;;;15.20;8.35;;;12.00;99.90;;;;;;5056724;28;20148;-74
2022/04/30 12:44:25;;;;;;;13.68;8.15;;;12.10;99.90;;;;;;5076704;28;20045;-73
2022/04/30 12:46:51;;;;;;;16.35;9.00;;;12.10;99.90;;;;;;5043824;28;20041;-73
2022/04/30 12:49:17;;;;;;;16.00;7.60;;;12.30;99.90;;;;;;5040904;28;20037;-73
2022/04/30 12:51:45;;;;;;;12.80;8.35;;;12.40;99.90;;;;;;5073954;28;20047;-75
2022/04/30 12:54:13;;;;;;;18.88;8.50;;;12.50;99.90;;;;;;5040623;28;20144;-74
2022/04/30 12:56:39;;;;;;;15.07;8.75;;;12.50;99.90;;;;;;5041914;28;20442;-73
2022/04/30 12:59:05;;;;;;;15.48;8.75;;;12.60;99.90;;;;;;5041244;28;20575;-73
2022/04/30 13:01:33;;;;;;;15.30;8.05;;;12.60;99.90;;;;;;5041568;28;20123;-73
2022/04/30 13:03:58;;;;;;;15.25;7.63;;;12.60;99.90;;;;;;5043453;28;20045;-73
2022/04/30 13:06:24;;;;;;;14.52;7.50;;;12.70;99.90;;;;;;5061454;28;20037;-72
2022/04/30 13:14:19;;;;;;;11.20;6.85;;;12.70;99.90;;;;;;5044571;28;20473;-72
2022/04/30 13:16:44;;;;;;;14.18;7.47;;;12.70;99.90;;;;;;5076881;28;20132;-73
2022/04/30 13:19:10;;;;;;;12.30;7.50;;;12.70;99.90;;;;;;5044956;28;20041;-74